Station: Loxton

  Atmospheric Gas Attenuation - ITU Rec 676-11   --------------- db/100km ---------------
Date Time Temp RH % AH g/m3 Dew Point Wind Direction Speed kph Gust kph Barometer mB Rainfall Since 9am 24GHz 47GHz 76GHz 122GHz 134GHz 241GHz
15 01:00 10.9 98 9.75 10.6 7 11 1015.5 18.4 22.2 28.8 46.3 121.8 118.5 408.5
15 00:50 10.7 98 9.63 10.4 7 9 1015.5 18.4 22.0 28.7 45.9 120.7 117.1 403.5
15 00:40 10.7 97 9.53 10.2 11 11 1015.5 18.4 21.7 28.5 45.5 119.5 115.7 398.5
15 00:30 10.7 97 9.53 10.2 9 11 1015.5 18.4 21.7 28.5 45.5 119.5 115.7 398.5
15 00:20 10.6 97 9.47 10.1 9 9 1015.5 18.4 21.6 28.4 45.3 119.0 115.0 396.0
15 00:10 10.4 97 9.35 9.9 11 13 1015.5 18.4 21.4 28.3 44.9 117.9 113.6 391.1
15 00:00 10.2 96 9.14 9.6 4 6 1015.5 18.4 20.9 28.0 44.1 115.8 110.9 381.6
14 23:50 10.4 96 9.25 9.8 4 6 1015.4 18.4 21.2 28.1 44.4 116.7 112.1 386.1
14 23:40 10.6 96 9.37 10 4 6 1015.5 18.4 21.4 28.3 44.8 117.8 113.6 391.1
14 23:30 11 96 9.61 10.4 4 9 1015.6 18.4 21.9 28.5 45.6 120.0 116.4 401.0
14 23:20 11.2 96 9.73 10.6 0 0 1015.6 18.4 22.1 28.7 46.1 121.1 117.8 405.9
14 23:10 11.4 96 9.86 10.8 0 0 1015.6 18.4 22.4 28.9 46.5 122.3 119.3 411.4
14 23:00 11.6 96 9.98 11 0 0 1015.6 18.4 22.7 29.0 46.9 123.3 120.7 416.3
14 22:50 11.7 96 10.04 11.1 0 0 1015.6 18.4 22.8 29.1 47.1 123.9 121.4 418.8
14 22:40 11.8 96 10.11 11.2 0 0 1015.6 18.4 22.9 29.2 47.3 124.5 122.3 421.7
14 22:30 11.9 96 10.17 11.3 6 7 1015.6 18.4 23.1 29.2 47.5 125.1 123.0 424.2
14 22:20 12.1 96 10.3 11.5 6 7 1015.4 18.4 23.3 29.4 48.0 126.2 124.5 429.6
14 22:10 12.1 96 10.3 11.5 6 6 1015.4 18.4 23.3 29.4 48.0 126.2 124.5 429.6
14 22:00 12.2 96 10.36 11.6 6 7 1015.4 18.4 23.5 29.5 48.2 126.8 125.2 432.0
14 21:50 12.3 96 10.43 11.7 6 6 1015.5 18.2 23.6 29.5 48.4 127.4 126.1 435.0
14 21:40 12.3 96 10.43 11.7 0 0 1015.6 18.2 23.6 29.6 48.4 127.5 126.1 435.0
14 21:30 12.4 96 10.49 11.8 0 0 1015.6 18.2 23.7 29.6 48.6 128.0 126.8 437.5
14 21:20 12.4 96 10.49 11.8 0 0 1015.6 18.2 23.7 29.6 48.6 128.0 126.8 437.5
14 21:10 12.4 96 10.49 11.8 0 0 1015.6 18 23.7 29.6 48.6 128.0 126.8 437.5
14 21:00 12.4 96 10.49 11.8 6 7 1015.5 18 23.7 29.6 48.6 128.0 126.8 437.5
14 20:50 12.3 96 10.43 11.7 6 6 1015.5 18 23.6 29.5 48.4 127.4 126.1 435.0
14 20:40 12.4 96 10.49 11.8 0 0 1015.5 18 23.7 29.6 48.6 128.0 126.8 437.5
14 20:30 12.4 96 10.49 11.8 6 6 1015.5 18 23.7 29.6 48.6 128.0 126.8 437.5
14 20:20 12.5 96 10.56 11.9 4 6 1015.5 18 23.9 29.7 48.9 128.6 127.6 440.4
14 20:10 12.7 96 10.69 12.1 7 9 1015.4 18 24.1 29.9 49.3 129.8 129.1 445.8
14 20:00 12.4 96 10.49 11.8 0 0 1015.4 18 23.7 29.6 48.6 128.0 126.8 437.4
14 19:50 12.4 96 10.49 11.8 0 0 1015.4 18 23.7 29.6 48.6 128.0 126.8 437.4
14 19:40 12.5 96 10.56 11.9 7 7 1015.3 18 23.9 29.7 48.9 128.6 127.6 440.3
14 19:30 12.2 95 10.25 11.4 2 4 1015.3 18 23.2 29.3 47.7 125.5 123.6 426.5
14 19:20 12.2 95 10.25 11.4 7 7 1015.2 18 23.2 29.3 47.7 125.5 123.6 426.4
14 19:10 12.2 94 10.14 11.3 0 0 1015.1 18 23.0 29.1 47.2 124.2 122.0 420.9
14 19:00 12.3 94 10.21 11.4 7 11 1015.1 18 23.1 29.1 47.5 124.8 122.9 423.8
14 18:50 12.4 93 10.16 11.3 9 11 1015 18 23.0 29.0 47.2 124.1 122.0 420.8
14 18:40 12.6 91 10.07 11.2 9 11 1014.7 18 22.8 28.8 46.6 122.7 120.4 415.1
14 18:30 12.7 92 10.24 11.4 11 13 1014.7 18 23.2 29.0 47.3 124.5 122.6 423.0
14 18:20 13 94 10.66 12.1 9 11 1014.6 17.8 24.1 29.7 49.0 128.9 128.1 442.3
14 18:10 13.6 95 11.18 12.8 4 6 1014.5 17 25.1 30.4 50.9 133.9 134.6 464.9
14 18:00 13.5 94 11 12.6 2 9 1014.2 17 24.8 30.1 50.1 132.0 132.1 456.3
14 17:50 13.7 94 11.13 12.8 6 7 1014 16.8 25.0 30.2 50.5 133.1 133.6 461.6
14 17:40 14 94 11.34 13.1 0 0 1014.2 16.4 25.5 30.5 51.3 135.1 136.2 470.5
14 17:30 14.3 92 11.3 13 9 15 1014.1 13 25.4 30.3 50.9 134.1 135.0 466.6
14 17:20 14.6 91 11.39 13.1 6 7 1013.9 9.6 25.5 30.4 51.1 134.6 135.8 469.2
14 17:10 14.3 90 11.06 12.7 6 7 1013.8 8.6 24.8 29.9 49.8 131.2 131.6 454.5
14 17:00 14.5 92 11.44 13.2 2 9 1013.5 6.8 25.6 30.5 51.4 135.3 136.6 472.2
14 16:50 14.8 91 11.53 13.3 7 9 1013.5 3.4 25.8 30.5 51.6 135.8 137.4 474.9
14 16:40 15 89 11.41 13.2 0 0 1013.6 2.6 25.5 30.3 50.9 134.1 135.3 467.7
14 16:30 15.1 89 11.48 13.3 6 11 1013.5 2.6 25.7 30.4 51.1 134.7 136.1 470.5
14 16:20 15.3 86 11.23 13 6 6 1013.4 1.4 25.1 29.8 49.9 131.5 132.2 456.8
14 16:10 15.3 83 10.84 12.4 9 9 1013.2 0 24.3 29.2 48.2 127.0 126.7 437.6
14 16:00 15.3 83 10.84 12.4 13 15 1013 0 24.3 29.2 48.2 126.9 126.7 437.5
14 15:50 15.5 83 10.97 12.6 13 17 1013 0 24.6 29.3 48.7 128.1 128.2 442.7
14 15:40 15.7 81 10.84 12.5 15 15 1013.1 0 24.3 29.0 48.0 126.3 126.0 435.3
14 15:30 16.2 79 10.89 12.6 13 20 1013.1 0 24.4 28.9 47.9 126.1 125.9 434.9
14 15:20 16.5 76 10.67 12.3 15 17 1013.1 0 23.9 28.5 46.8 123.1 122.4 422.7
14 15:10 16.8 75 10.72 12.3 9 11 1013 0 24.0 28.5 46.8 123.2 122.6 423.4
14 15:00 17.1 72 10.48 12 11 17 1013 0 23.4 28.0 45.6 120.1 118.8 410.4
14 14:50 17 74 10.71 12.3 9 11 1012.9 0 23.9 28.4 46.6 122.7 122.1 421.8
14 14:40 16.5 75 10.53 12.1 13 15 1012.8 0 23.6 28.2 46.2 121.5 120.4 415.9
14 14:30 16.7 73 10.37 11.8 13 15 1012.8 0 23.2 27.9 45.4 119.5 118.0 407.3
14 14:20 17.2 69 10.1 11.5 9 11 1012.9 0 22.6 27.3 44.0 115.8 113.6 392.1
14 14:10 17.3 68 10.02 11.3 13 15 1013.1 0 22.4 27.1 43.7 114.8 112.4 388.0
14 14:00 17.5 68 10.14 11.5 13 20 1013.1 0 22.7 27.3 44.0 115.8 113.7 392.5
14 13:50 18 66 10.14 11.6 15 19 1013.1 0 22.7 27.1 43.8 115.1 113.0 390.0
14 13:40 17.8 68 10.32 11.8 15 17 1013.3 0 23.0 27.5 44.6 117.3 115.7 399.4
14 13:30 17.9 69 10.53 12.1 15 24 1013.5 0 23.5 27.8 45.4 119.5 118.3 408.7
14 13:20 17.3 70 10.31 11.8 13 15 1013.8 0 23.1 27.6 44.9 118.0 116.3 401.7
14 13:10 16.7 73 10.37 11.8 11 13 1013.9 0 23.2 27.9 45.5 119.6 118.1 407.6
14 13:00 16.1 75 10.28 11.7 13 17 1014 0 23.1 28.0 45.4 119.5 117.8 406.5
14 12:50 15.5 77 10.18 11.5 17 19 1014.1 0 22.9 28.0 45.4 119.3 117.3 404.9
14 12:40 15.5 76 10.05 11.3 15 17 1014.2 0 22.6 27.8 44.8 117.9 115.6 398.8
14 12:30 15.3 78 10.19 11.5 17 22 1014.4 0 22.9 28.1 45.5 119.8 117.8 406.5
14 12:20 15.6 77 10.24 11.6 15 19 1014.6 0 23.0 28.1 45.6 119.9 118.0 407.4
14 12:10 15.3 78 10.19 11.5 15 20 1014.7 0 22.9 28.1 45.6 119.8 117.8 406.6
14 12:00 15.6 75 9.97 11.2 19 24 1014.8 0 22.4 27.7 44.5 117.0 114.4 394.6
14 11:50 15.2 76 9.86 11 19 22 1014.9 0 22.2 27.6 44.3 116.4 113.5 391.5
14 11:40 14.6 78 9.76 10.8 19 26 1015.1 0 22.0 27.6 44.2 116.2 113.0 389.8
14 11:30 14.5 78 9.7 10.7 19 22 1015.1 0 21.9 27.6 44.0 115.6 112.4 387.4
14 11:20 14.7 79 9.95 11.1 17 20 1015.3 0 22.4 27.9 44.9 118.1 115.5 398.4
14 11:10 14.6 80 10.01 11.2 19 24 1015.6 0 22.6 28.1 45.3 119.0 116.5 401.9
14 11:00 14.3 83 10.2 11.5 11 13 1015.8 0 23.0 28.5 46.2 121.6 119.6 412.7
14 10:50 13.6 82 9.65 10.6 15 19 1016.1 0 21.8 27.8 44.3 116.5 113.1 389.8
14 10:40 13.6 83 9.77 10.8 15 17 1016.1 0 22.1 28.0 44.8 117.9 114.7 395.6
14 10:30 13.4 83 9.65 10.6 15 24 1016.2 0 21.9 27.9 44.5 116.9 113.4 390.9
14 10:20 13.1 84 9.59 10.5 17 19 1016.2 0 21.7 27.9 44.4 116.6 113.0 389.5
14 10:10 12.9 84 9.47 10.3 19 22 1016.4 0 21.5 27.7 44.0 115.6 111.7 384.7
14 10:00 12.7 84 9.35 10.1 19 26 1016.5 0 21.2 27.6 43.6 114.6 110.3 379.9
14 09:50 12.5 86 9.46 10.2 19 24 1016.5 0 21.5 27.8 44.2 116.1 112.1 386.3
14 09:40 12.2 87 9.39 10.1 20 24 1016.5 0 21.4 27.8 44.1 115.8 111.6 384.3
14 09:30 11.7 87 9.1 9.6 17 19 1016.6 0 20.8 27.5 43.1 113.2 108.3 372.7
14 09:20 11.9 87 9.22 9.8 22 24 1016.4 0 21.0 27.6 43.5 114.3 109.6 377.5
14 09:10 11.8 89 9.37 10 17 19 1016.4 0 21.3 27.9 44.2 116.1 111.9 385.3
14 09:00 11.3 90 9.18 9.7 19 28 1016.3 0 21.0 27.7 43.7 114.7 109.9 378.5
14 08:50 10.7 92 9.04 9.5 17 20 1016.5 3.8 20.7 27.7 43.4 114.0 108.8 374.6
14 08:40 10.5 93 9.02 9.4 17 19 1016.5 3.8 20.7 27.7 43.4 114.1 108.8 374.5
14 08:30 10.3 93 8.91 9.2 17 24 1016.6 3.8 20.4 27.6 43.1 113.1 107.6 370.1

Last Refresh: 15-Jun-2024 01:11:25

Bureau of Meteorology